createdAt,value
2019-05-10T00:00:31.905Z,7.03
2019-05-10T00:03:22.716Z,7.30
2019-05-10T00:06:12.386Z,7.33
2019-05-10T00:08:45.939Z,7.65
2019-05-10T00:11:30.447Z,7.67
2019-05-10T00:14:08.379Z,11.30
2019-05-10T00:16:41.234Z,8.00
2019-05-10T00:19:12.779Z,8.18
2019-05-10T00:21:44.745Z,7.70
2019-05-10T00:24:17.735Z,7.80
2019-05-10T00:26:49.488Z,7.20
2019-05-10T00:29:21.036Z,7.60
2019-05-10T00:31:52.697Z,7.00
2019-05-10T00:34:24.865Z,8.95
2019-05-10T00:36:56.511Z,7.72
2019-05-10T00:39:28.068Z,7.78
2019-05-10T00:41:59.729Z,7.12
2019-05-10T00:44:31.685Z,8.08
2019-05-10T00:47:03.134Z,7.25
2019-05-10T00:49:34.890Z,7.62
2019-05-10T00:52:06.652Z,7.95
2019-05-10T00:54:39.328Z,7.17
2019-05-10T00:57:11.088Z,8.08
2019-05-10T00:59:42.642Z,8.53
2019-05-10T01:02:14.633Z,7.42
2019-05-10T01:04:47.276Z,7.65
2019-05-10T01:07:18.730Z,8.15
2019-05-10T01:12:20.809Z,8.30
2019-05-10T01:14:52.258Z,7.90
2019-05-10T01:17:23.605Z,8.15
2019-05-10T01:19:56.229Z,7.72
2019-05-10T01:22:27.711Z,8.05
2019-05-10T01:24:59.600Z,7.92
2019-05-10T01:27:31.453Z,8.78
2019-05-10T01:30:03.323Z,8.78
2019-05-10T01:32:35.115Z,8.60
2019-05-10T01:35:07.550Z,9.58
2019-05-10T01:37:39.202Z,8.58
2019-05-10T01:40:11.635Z,9.63
2019-05-10T01:42:43.026Z,9.58
2019-05-10T01:45:16.176Z,9.53
2019-05-10T01:47:47.669Z,8.45
2019-05-10T01:50:19.536Z,8.38
2019-05-10T01:52:52.204Z,8.95
2019-05-10T01:55:23.565Z,10.98
2019-05-10T01:57:55.325Z,10.80
2019-05-10T02:00:27.274Z,10.55
2019-05-10T02:02:59.163Z,11.90
2019-05-10T02:05:30.804Z,12.70
2019-05-10T02:08:02.438Z,13.70
2019-05-10T02:10:34.401Z,14.18
2019-05-10T02:13:05.854Z,13.85
2019-05-10T02:15:37.708Z,13.48
2019-05-10T02:18:09.466Z,14.45
2019-05-10T02:20:41.123Z,13.10
2019-05-10T02:23:12.779Z,13.88
2019-05-10T02:25:45.564Z,18.32
2019-05-10T02:28:17.215Z,14.53
2019-05-10T02:30:49.276Z,13.65
2019-05-10T02:33:21.141Z,13.20
2019-05-10T02:35:52.800Z,14.03
2019-05-10T02:38:24.462Z,13.75
2019-05-10T02:40:56.410Z,14.50
2019-05-10T02:43:28.093Z,15.53
2019-05-10T02:45:59.520Z,14.55
2019-05-10T02:48:31.270Z,15.03
2019-05-10T02:51:02.725Z,16.48
2019-05-10T02:53:35.026Z,17.67
2019-05-10T02:56:06.545Z,17.17
2019-05-10T02:58:39.110Z,16.70
2019-05-10T03:01:14.366Z,17.27
2019-05-10T03:03:50.111Z,16.97
2019-05-10T03:06:24.843Z,16.95
2019-05-10T03:08:56.945Z,27.25
2019-05-10T03:11:31.630Z,17.20
2019-05-10T03:14:06.049Z,18.25
2019-05-10T03:16:39.813Z,16.50
2019-05-10T03:19:12.780Z,16.90
2019-05-10T03:21:46.241Z,18.17
2019-05-10T03:24:18.200Z,20.32
2019-05-10T03:26:51.501Z,18.98
2019-05-10T03:29:23.665Z,21.17
2019-05-10T03:31:55.534Z,18.98
2019-05-10T03:34:27.075Z,18.90
2019-05-10T03:36:58.729Z,20.12
2019-05-10T03:39:30.595Z,20.97
2019-05-10T03:42:02.651Z,21.42
2019-05-10T03:44:34.616Z,22.60
2019-05-10T03:47:06.473Z,26.55
2019-05-10T03:52:08.793Z,31.62
2019-05-10T03:54:41.330Z,27.27
2019-05-10T03:57:14.627Z,28.27
2019-05-10T03:59:48.025Z,28.60
2019-05-10T04:02:19.886Z,33.45
2019-05-10T04:04:51.746Z,26.07
2019-05-10T04:07:23.605Z,27.15
2019-05-10T04:09:55.266Z,30.40
2019-05-10T04:12:27.144Z,36.53
2019-05-10T04:14:59.098Z,36.90
2019-05-10T04:17:30.833Z,35.58
2019-05-10T04:20:02.602Z,41.65
2019-05-10T04:22:34.555Z,41.80
2019-05-10T04:25:06.321Z,37.25
2019-05-10T04:27:37.865Z,56.25
2019-05-10T04:30:10.480Z,32.13
2019-05-10T04:32:42.917Z,34.00
2019-05-10T04:35:14.889Z,32.83
2019-05-10T04:37:46.848Z,28.75
2019-05-10T04:40:18.709Z,29.85
2019-05-10T04:42:51.389Z,34.67
2019-05-10T04:45:23.033Z,29.63
2019-05-10T04:47:54.601Z,27.37
2019-05-10T04:50:26.595Z,25.92
2019-05-10T04:52:58.726Z,27.13
2019-05-10T04:55:30.275Z,27.55
2019-05-10T05:00:32.380Z,22.87
2019-05-10T05:03:04.520Z,25.72
2019-05-10T05:05:35.973Z,30.88
2019-05-10T05:08:08.037Z,23.27
2019-05-10T05:10:39.481Z,23.65
2019-05-10T05:15:41.564Z,29.87
2019-05-10T05:18:13.953Z,25.75
2019-05-10T05:20:45.482Z,27.37
2019-05-10T05:23:17.244Z,32.35
2019-05-10T05:25:48.690Z,26.33
2019-05-10T05:28:23.140Z,22.20
2019-05-10T05:30:53.753Z,23.50
2019-05-10T05:33:25.614Z,25.62
2019-05-10T05:35:57.172Z,25.68
2019-05-10T05:38:28.939Z,24.92
2019-05-10T05:41:00.571Z,25.68
2019-05-10T05:43:32.427Z,22.82
2019-05-10T05:46:04.292Z,24.60
2019-05-10T05:48:40.426Z,24.72
2019-05-10T05:51:09.649Z,22.58
2019-05-10T05:53:42.890Z,25.77
2019-05-10T05:56:14.860Z,29.18
2019-05-10T05:58:47.079Z,20.95
2019-05-10T06:01:26.152Z,25.37
2019-05-10T06:03:53.656Z,23.22
2019-05-10T06:06:25.508Z,22.80
2019-05-10T06:08:59.611Z,20.90
2019-05-10T06:11:35.981Z,22.52
2019-05-10T06:14:10.925Z,17.82
2019-05-10T06:16:39.101Z,19.10
2019-05-10T06:21:41.082Z,20.48
2019-05-10T06:24:14.000Z,18.67
2019-05-10T06:26:45.820Z,17.00
2019-05-10T06:29:19.720Z,20.35
2019-05-10T06:31:50.867Z,19.42
2019-05-10T06:34:22.331Z,16.70
2019-05-10T06:36:54.178Z,18.15
2019-05-10T06:39:25.937Z,15.55
2019-05-10T06:41:58.437Z,17.60
2019-05-10T06:44:31.289Z,16.23
2019-05-10T06:47:08.105Z,15.05
2019-05-10T06:49:41.695Z,13.20
2019-05-10T06:52:10.285Z,12.60
2019-05-10T06:54:42.112Z,11.33
2019-05-10T06:57:17.464Z,10.10
2019-05-10T06:59:48.188Z,11.48
2019-05-10T07:02:26.015Z,13.03
2019-05-10T07:04:53.651Z,10.85
2019-05-10T07:07:42.605Z,10.10
2019-05-10T07:10:08.373Z,11.20
2019-05-10T07:12:32.067Z,10.35
2019-05-10T07:15:05.510Z,10.23
2019-05-10T07:17:43.636Z,9.33
2019-05-10T07:20:10.946Z,11.48
2019-05-10T07:22:42.814Z,12.05
2019-05-10T07:25:14.468Z,15.90
2019-05-10T07:27:49.990Z,13.08
2019-05-10T07:30:31.289Z,13.35
2019-05-10T07:33:02.870Z,12.35
2019-05-10T07:35:37.033Z,14.10
2019-05-10T07:38:08.404Z,12.25
2019-05-10T07:40:39.861Z,15.23
2019-05-10T07:43:11.815Z,14.15
2019-05-10T07:45:43.160Z,13.38
2019-05-10T07:48:14.921Z,11.08
2019-05-10T07:53:23.085Z,14.50
2019-05-10T07:55:52.857Z,12.28
2019-05-10T07:58:24.713Z,9.43
2019-05-10T08:00:56.792Z,7.55
2019-05-10T08:03:29.844Z,8.30
2019-05-10T08:06:02.189Z,9.85
2019-05-10T08:08:33.796Z,11.03
2019-05-10T08:11:05.553Z,10.10
2019-05-10T08:13:39.356Z,9.20
2019-05-10T08:16:18.911Z,6.75
2019-05-10T08:18:44.001Z,7.60
2019-05-10T08:21:23.797Z,8.38
2019-05-10T08:23:48.943Z,8.43
2019-05-10T08:26:24.618Z,7.60
2019-05-10T08:28:53.685Z,5.47
2019-05-10T08:31:26.389Z,5.00
2019-05-10T08:33:59.269Z,3.95
2019-05-10T08:36:32.307Z,4.55
2019-05-10T08:39:10.636Z,5.08
2019-05-10T08:41:39.727Z,6.08
2019-05-10T08:44:18.792Z,6.10
2019-05-10T08:46:44.453Z,10.00
2019-05-10T08:49:22.095Z,3.67
2019-05-10T08:51:52.075Z,3.62
2019-05-10T08:54:26.238Z,4.60
2019-05-10T08:57:01.080Z,8.18
2019-05-10T08:59:30.829Z,5.33
2019-05-10T09:02:02.331Z,5.95
2019-05-10T09:04:42.230Z,7.42
2019-05-10T09:07:07.046Z,7.33
2019-05-10T09:09:45.559Z,6.83
2019-05-10T09:12:12.285Z,7.80
2019-05-10T09:14:44.129Z,7.85
2019-05-10T09:17:23.761Z,8.83
2019-05-10T09:19:48.657Z,8.15
2019-05-10T09:22:25.965Z,7.72
2019-05-10T09:24:53.301Z,7.62
2019-05-10T09:29:56.727Z,5.70
2019-05-10T09:32:29.000Z,5.30
2019-05-10T09:35:07.871Z,5.53
2019-05-10T09:37:34.429Z,7.03
2019-05-10T09:40:10.044Z,6.55
2019-05-10T09:42:43.582Z,5.40
2019-05-10T09:45:14.468Z,6.67
2019-05-10T09:47:46.090Z,4.58
2019-05-10T09:50:17.913Z,9.88
2019-05-10T09:52:49.848Z,5.28
2019-05-10T09:55:21.283Z,5.80
2019-05-10T09:57:54.272Z,5.03
2019-05-10T10:00:34.002Z,5.33
2019-05-10T10:03:08.303Z,6.00
2019-05-10T10:05:40.334Z,5.40
2019-05-10T10:08:12.054Z,6.40
2019-05-10T10:10:43.397Z,5.10
2019-05-10T10:13:25.536Z,6.47
2019-05-10T10:15:52.033Z,6.33
2019-05-10T10:18:25.373Z,4.75
2019-05-10T10:20:55.554Z,7.05
2019-05-10T10:23:30.697Z,5.35
2019-05-10T10:26:00.402Z,4.10
2019-05-10T10:28:31.943Z,5.15
2019-05-10T10:31:05.467Z,5.33
2019-05-10T10:33:37.970Z,18.23
2019-05-10T10:36:10.693Z,6.95
2019-05-10T10:38:45.456Z,4.75
2019-05-10T10:41:19.181Z,5.17
2019-05-10T10:43:49.048Z,7.05
2019-05-10T10:46:20.502Z,5.08
2019-05-10T10:48:52.253Z,5.50
2019-05-10T10:51:26.654Z,7.20
2019-05-10T10:53:58.276Z,5.58
2019-05-10T10:56:29.981Z,6.58
2019-05-10T10:59:01.663Z,7.25
2019-05-10T11:01:47.266Z,7.12
2019-05-10T11:04:08.251Z,10.75
2019-05-10T11:06:40.599Z,7.55
2019-05-10T11:09:12.154Z,6.35
2019-05-10T11:11:44.900Z,6.03
2019-05-10T11:14:17.614Z,8.03
2019-05-10T11:16:52.831Z,7.22
2019-05-10T11:19:22.437Z,8.38
2019-05-10T11:21:54.417Z,8.10
2019-05-10T11:24:26.005Z,7.00
2019-05-10T11:29:28.197Z,6.78
2019-05-10T11:32:15.426Z,7.53
2019-05-10T11:34:37.329Z,7.50
2019-05-10T11:37:07.525Z,7.05
2019-05-10T11:39:45.323Z,6.17
2019-05-10T11:42:15.395Z,4.58
2019-05-10T11:44:50.277Z,4.35
2019-05-10T11:47:23.974Z,4.92
2019-05-10T11:49:51.834Z,4.80
2019-05-10T11:52:29.097Z,4.12
2019-05-10T11:54:57.192Z,7.50
2019-05-10T11:57:32.076Z,4.92
2019-05-10T12:00:03.585Z,4.55
2019-05-10T12:07:45.829Z,6.45
2019-05-10T12:10:21.140Z,4.35
2019-05-10T12:15:25.347Z,4.97
2019-05-10T12:23:03.850Z,6.37
2019-05-10T12:25:51.461Z,6.05
2019-05-10T12:26:06.388Z,4.50
2019-05-10T12:26:08.471Z,4.67
2019-05-10T12:26:18.022Z,5.30
2019-05-10T12:26:18.180Z,4.37
2019-05-10T12:26:21.451Z,5.17
2019-05-10T12:28:08.675Z,4.87
2019-05-10T12:30:41.462Z,4.17
2019-05-10T12:33:23.949Z,3.90
2019-05-10T12:35:47.487Z,8.98
2019-05-10T12:38:23.545Z,4.17
2019-05-10T12:40:52.178Z,3.98
2019-05-10T12:43:24.121Z,3.50
2019-05-10T12:45:55.586Z,3.70
2019-05-10T12:48:27.338Z,5.22
2019-05-10T12:53:31.640Z,3.37
2019-05-10T12:56:03.372Z,3.50
2019-05-10T12:58:35.089Z,3.67
2019-05-10T13:01:06.935Z,3.77
2019-05-10T13:03:38.402Z,3.77
2019-05-10T13:06:09.949Z,3.27
2019-05-10T13:08:41.704Z,4.08
2019-05-10T13:11:18.490Z,4.30
2019-05-10T13:13:46.759Z,4.75
2019-05-10T13:16:18.618Z,5.10
2019-05-10T13:18:52.545Z,3.02
2019-05-10T13:21:24.077Z,4.60
2019-05-10T13:23:55.741Z,5.83
2019-05-10T13:26:27.701Z,5.28
2019-05-10T13:29:02.164Z,10.38
2019-05-10T13:31:42.211Z,5.42
2019-05-10T13:34:05.837Z,3.37
2019-05-10T13:36:39.209Z,6.17
2019-05-10T13:39:10.728Z,4.50
2019-05-10T13:41:42.541Z,4.30
2019-05-10T13:44:14.306Z,5.62
2019-05-10T13:46:46.158Z,5.00
2019-05-10T13:49:17.818Z,4.75
2019-05-10T13:51:50.072Z,10.58
2019-05-10T13:54:21.627Z,5.67
2019-05-10T13:56:54.959Z,3.80
2019-05-10T13:59:26.683Z,5.05
2019-05-10T14:01:58.852Z,5.65
2019-05-10T14:04:34.132Z,5.03
2019-05-10T14:07:04.112Z,6.58
2019-05-10T14:09:35.555Z,5.45
2019-05-10T14:12:07.523Z,7.25
2019-05-10T14:14:38.963Z,5.67
2019-05-10T14:17:10.619Z,5.20
2019-05-10T14:19:42.174Z,4.85
2019-05-10T14:22:14.245Z,4.90
2019-05-10T14:24:46.648Z,6.60
2019-05-10T14:27:18.980Z,15.48
2019-05-10T14:29:50.647Z,4.50
2019-05-10T14:32:22.400Z,6.60
2019-05-10T14:34:53.943Z,7.15
2019-05-10T14:37:25.600Z,5.60
2019-05-10T14:39:59.918Z,6.28
2019-05-10T14:42:33.563Z,5.22
2019-05-10T14:45:05.783Z,6.90
2019-05-10T14:47:46.763Z,7.75
2019-05-10T14:50:11.661Z,6.40
2019-05-10T14:52:43.368Z,7.87
2019-05-10T14:55:15.482Z,10.18
2019-05-10T14:57:47.348Z,6.85
2019-05-10T15:00:19.209Z,5.90
2019-05-10T15:02:50.859Z,8.08
2019-05-10T15:05:22.518Z,6.58
2019-05-10T15:07:54.070Z,10.00
2019-05-10T15:10:25.927Z,6.62
2019-05-10T15:12:57.781Z,8.83
2019-05-10T15:15:30.925Z,9.85
2019-05-10T15:18:03.661Z,14.07
2019-05-10T15:20:35.997Z,19.07
2019-05-10T15:23:07.682Z,12.23
2019-05-10T15:25:55.463Z,33.23
2019-05-10T15:28:13.342Z,10.10
2019-05-10T15:30:49.352Z,12.28
2019-05-10T15:33:18.608Z,10.70
2019-05-10T15:35:51.937Z,10.53
2019-05-10T15:38:24.061Z,11.43
2019-05-10T15:40:55.713Z,8.58
2019-05-10T15:43:27.884Z,8.80
2019-05-10T15:45:59.640Z,9.75
2019-05-10T15:48:31.502Z,11.28
2019-05-10T15:51:03.052Z,9.28
2019-05-10T15:53:35.325Z,9.78
2019-05-10T15:56:06.977Z,13.70
2019-05-10T15:58:42.120Z,9.33
2019-05-10T16:01:14.444Z,9.45
2019-05-10T16:03:45.724Z,10.18
2019-05-10T16:06:17.493Z,10.48
2019-05-10T16:08:49.452Z,10.38
2019-05-10T16:11:21.427Z,11.53
2019-05-10T16:13:54.661Z,10.32
2019-05-10T16:16:30.357Z,11.30
2019-05-10T16:18:59.555Z,11.38
2019-05-10T16:21:31.115Z,11.38
2019-05-10T16:24:02.862Z,10.75
2019-05-10T16:26:34.614Z,11.88
2019-05-10T16:29:06.226Z,10.98
2019-05-10T16:34:08.347Z,12.18
2019-05-10T16:36:40.222Z,11.15
2019-05-10T16:39:11.872Z,15.25
2019-05-10T16:41:44.029Z,10.28
2019-05-10T16:44:15.514Z,10.72
2019-05-10T16:46:47.032Z,10.05
2019-05-10T16:49:19.099Z,10.78
2019-05-10T16:51:51.416Z,10.35
2019-05-10T16:54:25.375Z,11.63
2019-05-10T16:57:01.148Z,12.35
2019-05-10T16:59:31.227Z,11.20
2019-05-10T17:02:06.053Z,13.62
2019-05-10T17:04:37.451Z,12.10
2019-05-10T17:07:12.802Z,16.23
2019-05-10T17:09:42.578Z,13.70
2019-05-10T17:12:14.458Z,14.43
2019-05-10T17:14:50.461Z,14.60
2019-05-10T17:17:19.590Z,16.17
2019-05-10T17:19:51.563Z,15.00
2019-05-10T17:22:23.217Z,12.63
2019-05-10T17:24:56.792Z,13.50
2019-05-10T17:27:27.643Z,13.53
2019-05-10T17:29:58.957Z,13.65
2019-05-10T17:35:04.603Z,15.05
2019-05-10T17:37:35.910Z,14.85
2019-05-10T17:40:10.638Z,16.75
2019-05-10T17:42:43.518Z,16.35
2019-05-10T17:45:16.502Z,16.65
2019-05-10T17:47:48.160Z,17.07
2019-05-10T17:50:19.930Z,18.42
2019-05-10T17:52:52.104Z,17.60
2019-05-10T17:55:25.617Z,17.95
2019-05-10T17:57:57.351Z,17.45
2019-05-10T18:00:29.303Z,20.68
2019-05-10T18:03:01.570Z,22.15
2019-05-10T18:05:34.179Z,22.62
2019-05-10T18:08:06.317Z,22.00
2019-05-10T18:10:38.068Z,22.30
2019-05-10T18:13:09.618Z,21.45
2019-05-10T18:15:41.378Z,22.98
2019-05-10T18:18:13.498Z,24.20
2019-05-10T18:20:45.407Z,23.75
2019-05-10T18:23:22.719Z,22.58
2019-05-10T18:25:52.429Z,22.70
2019-05-10T18:28:23.441Z,23.52
2019-05-10T18:30:55.302Z,22.55
2019-05-10T18:33:27.679Z,21.77
2019-05-10T18:35:59.423Z,24.47
2019-05-10T18:38:37.015Z,26.37
2019-05-10T18:41:09.516Z,30.95
2019-05-10T18:43:40.620Z,30.60
2019-05-10T18:46:11.473Z,33.78
2019-05-10T18:48:43.458Z,32.75
2019-05-10T18:51:17.860Z,39.25
2019-05-10T18:53:48.589Z,36.55
2019-05-10T18:56:25.326Z,38.70
2019-05-10T18:58:53.329Z,38.67
2019-05-10T19:01:25.723Z,36.10
2019-05-10T19:03:57.455Z,30.27
2019-05-10T19:06:31.309Z,25.45
2019-05-10T19:09:02.418Z,24.52
2019-05-10T19:11:39.127Z,25.08
2019-05-10T19:14:09.430Z,22.13
2019-05-10T19:16:41.370Z,21.90
2019-05-10T19:19:13.123Z,19.23
2019-05-10T19:21:44.782Z,18.05
2019-05-10T19:24:16.640Z,17.87
2019-05-10T19:26:48.102Z,16.23
2019-05-10T19:29:19.951Z,16.55
2019-05-10T19:31:51.497Z,13.30
2019-05-10T19:34:22.947Z,14.30
2019-05-10T19:36:54.709Z,14.73
2019-05-10T19:39:26.461Z,15.93
2019-05-10T19:42:03.858Z,15.32
2019-05-10T19:44:34.759Z,16.23
2019-05-10T19:47:04.807Z,17.85
2019-05-10T19:49:37.591Z,17.30
2019-05-10T19:52:09.555Z,17.55
2019-05-10T19:54:41.103Z,15.68
2019-05-10T19:57:16.189Z,17.32
2019-05-10T19:59:48.704Z,16.50
2019-05-10T20:02:19.674Z,16.20
2019-05-10T20:04:51.212Z,16.70
2019-05-10T20:07:23.175Z,15.80
2019-05-10T20:09:55.028Z,16.48
2019-05-10T20:12:26.884Z,17.70
2019-05-10T20:17:29.075Z,21.90
2019-05-10T20:20:00.827Z,19.73
2019-05-10T20:22:36.079Z,19.05
2019-05-10T20:25:08.950Z,20.17
2019-05-10T20:27:40.402Z,19.23
2019-05-10T20:30:12.363Z,19.60
2019-05-10T20:32:43.824Z,19.45
2019-05-10T20:35:15.362Z,18.95
2019-05-10T20:38:00.817Z,18.45
2019-05-10T20:40:20.422Z,18.67
2019-05-10T20:42:51.864Z,19.80
2019-05-10T20:45:23.633Z,19.07
2019-05-10T20:47:55.276Z,19.95
2019-05-10T20:50:27.036Z,20.32
2019-05-10T20:52:59.099Z,19.90
2019-05-10T20:55:30.660Z,19.67
2019-05-10T20:58:03.512Z,21.50
2019-05-10T21:00:34.992Z,20.15
2019-05-10T21:03:07.351Z,19.92
2019-05-10T21:05:39.833Z,20.52
2019-05-10T21:08:17.143Z,19.17
2019-05-10T21:10:44.782Z,19.37
2019-05-10T21:13:16.636Z,20.43
2019-05-10T21:15:50.445Z,19.82
2019-05-10T21:18:21.906Z,20.37
2019-05-10T21:20:53.665Z,20.92
2019-05-10T21:23:25.408Z,20.20
2019-05-10T21:25:57.273Z,19.85
2019-05-10T21:28:28.919Z,20.17
2019-05-10T21:31:00.717Z,20.72
2019-05-10T21:33:32.541Z,20.32
2019-05-10T21:38:34.417Z,18.70
2019-05-10T21:41:06.072Z,19.30
2019-05-10T21:43:37.933Z,19.20
2019-05-10T21:48:39.809Z,17.52
2019-05-10T21:51:11.357Z,17.40
2019-05-10T21:53:43.524Z,16.90
2019-05-10T21:56:14.972Z,17.52
2019-05-10T21:58:46.531Z,17.62
2019-05-10T22:01:18.903Z,17.37
2019-05-10T22:03:50.247Z,16.80
2019-05-10T22:06:21.809Z,17.52
2019-05-10T22:08:53.354Z,16.82
2019-05-10T22:11:25.418Z,17.85
2019-05-10T22:13:56.870Z,16.60
2019-05-10T22:16:28.527Z,14.87
2019-05-10T22:19:02.087Z,16.05
2019-05-10T22:21:33.580Z,10.00
2019-05-10T22:24:05.428Z,8.95
2019-05-10T22:26:37.189Z,7.95
2019-05-10T22:29:09.055Z,7.40
2019-05-10T22:31:40.498Z,6.97
2019-05-10T22:34:11.949Z,6.85
2019-05-10T22:36:43.718Z,6.50
2019-05-10T22:41:45.688Z,6.33
2019-05-10T22:44:17.548Z,6.50
2019-05-10T22:46:49.401Z,6.45
2019-05-10T22:49:20.952Z,6.78
2019-05-10T22:51:52.962Z,7.20
2019-05-10T22:54:24.988Z,6.85
2019-05-10T22:56:56.736Z,7.12
2019-05-10T22:59:28.493Z,7.12
2019-05-10T23:02:01.375Z,7.60
2019-05-10T23:04:32.833Z,7.15
2019-05-10T23:07:04.590Z,7.15
2019-05-10T23:09:36.038Z,6.95
2019-05-10T23:12:07.825Z,7.62
2019-05-10T23:14:39.553Z,8.18
2019-05-10T23:17:11.414Z,7.78
2019-05-10T23:19:43.270Z,9.10
2019-05-10T23:22:14.823Z,9.48
2019-05-10T23:24:46.384Z,8.15
2019-05-10T23:27:18.034Z,8.55
2019-05-10T23:29:49.685Z,8.60
2019-05-10T23:32:21.644Z,8.18
2019-05-10T23:34:53.303Z,8.68
2019-05-10T23:37:24.961Z,8.58
2019-05-10T23:39:56.718Z,8.45
2019-05-10T23:42:28.372Z,7.62
2019-05-10T23:44:59.927Z,8.20
2019-05-10T23:47:31.682Z,8.55
2019-05-10T23:52:34.161Z,8.90
2019-05-10T23:55:06.855Z,18.00
2019-05-10T23:57:38.317Z,15.05
